Time;durP1;ratioP1;P1;durP2;ratioP2;P2;SDS_P1;SDS_P2;PMS_P1;PMS_P2;Temp;Humidity;BMP_temperature;BMP_pressure;BME280_temperature;BME280_humidity;BME280_pressure;Samples;Min_cycle;Max_cycle;Signal;HPM_P1;HPM_P2
2023/06/09 00:00:41;;;;;;;4.65;4.25;;;;;;;;;;5044260;28;20250;-84
2023/06/09 00:03:08;;;;;;;4.25;3.85;;;;;;;;;;5044840;28;20250;-84
2023/06/09 00:05:39;;;;;;;4.85;3.80;;;;;;;;;;5044033;28;20667;-85
2023/06/09 00:08:07;;;;;;;3.92;3.60;;;;;;;;;;5043671;28;20198;-86
2023/06/09 00:10:34;;;;;;;3.95;3.65;;;;;;;;;;5042989;28;20328;-85
2023/06/09 00:13:02;;;;;;;3.58;3.38;;;;;;;;;;5043919;28;20206;-82
2023/06/09 00:15:30;;;;;;;4.28;3.88;;;;;;;;;;5043940;28;20664;-84
2023/06/09 00:17:57;;;;;;;3.10;2.90;;;;;;;;;;5043849;28;20198;-84
2023/06/09 00:20:26;;;;;;;6.88;4.45;;;;;;;;;;5043668;28;20289;-85
2023/06/09 00:22:58;;;;;;;3.63;3.33;;;;;;;;;;5044328;28;20201;-84
2023/06/09 00:25:26;;;;;;;4.38;4.03;;;;;;;;;;5043295;28;20185;-85
2023/06/09 00:27:53;;;;;;;3.92;3.63;;;;;;;;;;5042907;28;20206;-83
2023/06/09 00:30:22;;;;;;;3.92;3.50;;;;;;;;;;5043495;28;20249;-84
2023/06/09 00:32:50;;;;;;;3.65;3.35;;;;;;;;;;5041737;28;20238;-85
2023/06/09 00:35:18;;;;;;;4.43;4.10;;;;;;;;;;5041607;28;20199;-84
2023/06/09 00:37:46;;;;;;;3.10;2.90;;;;;;;;;;5041699;28;20262;-83
2023/06/09 00:40:16;;;;;;;4.00;3.70;;;;;;;;;;5040996;28;20716;-84
2023/06/09 00:42:44;;;;;;;3.22;2.92;;;;;;;;;;5042515;28;20230;-83
2023/06/09 00:45:11;;;;;;;3.33;3.13;;;;;;;;;;5042818;28;20282;-84
2023/06/09 00:47:39;;;;;;;4.20;3.90;;;;;;;;;;5045121;28;20226;-84
2023/06/09 00:50:07;;;;;;;4.78;4.13;;;;;;;;;;5062927;28;20221;-85
2023/06/09 00:52:35;;;;;;;5.10;3.92;;;;;;;;;;5063043;28;20293;-84
2023/06/09 00:55:03;;;;;;;3.90;3.60;;;;;;;;;;5063474;28;20237;-84
2023/06/09 00:57:33;;;;;;;4.93;3.80;;;;;;;;;;5064676;28;20236;-85
2023/06/09 01:00:06;;;;;;;4.18;3.78;;;;;;;;;;5063128;28;20229;-84
2023/06/09 01:02:38;;;;;;;4.60;4.20;;;;;;;;;;5062620;28;20646;-84
2023/06/09 01:05:06;;;;;;;4.60;4.20;;;;;;;;;;5062729;28;20210;-84
2023/06/09 01:07:41;;;;;;;4.68;3.92;;;;;;;;;;5061529;28;20202;-83
2023/06/09 01:10:14;;;;;;;3.95;3.65;;;;;;;;;;5062614;28;20457;-82
2023/06/09 01:13:04;;;;;;;4.53;4.20;;;;;;;;;;5062511;28;20277;-84
2023/06/09 01:15:35;;;;;;;4.15;3.85;;;;;;;;;;5062395;28;20628;-84
2023/06/09 01:18:08;;;;;;;4.30;4.00;;;;;;;;;;5061698;28;20239;-85
2023/06/09 01:20:45;;;;;;;4.68;4.13;;;;;;;;;;5044069;28;20226;-82
2023/06/09 01:23:21;;;;;;;4.40;4.10;;;;;;;;;;5042778;28;20237;-84
2023/06/09 01:25:52;;;;;;;3.80;3.50;;;;;;;;;;5042192;28;20214;-85
2023/06/09 01:28:21;;;;;;;3.42;3.13;;;;;;;;;;5041758;28;20221;-85
2023/06/09 01:30:51;;;;;;;4.55;3.28;;;;;;;;;;5042668;28;20222;-84
2023/06/09 01:33:22;;;;;;;3.67;3.38;;;;;;;;;;5043137;28;20282;-84
2023/06/09 01:35:51;;;;;;;3.80;3.50;;;;;;;;;;5041762;28;20221;-83
2023/06/09 01:38:21;;;;;;;4.03;3.72;;;;;;;;;;5042380;28;20202;-83
2023/06/09 01:40:50;;;;;;;3.70;3.40;;;;;;;;;;5042093;28;20253;-84
2023/06/09 01:43:18;;;;;;;3.90;3.60;;;;;;;;;;5042787;28;20199;-85
2023/06/09 01:45:46;;;;;;;4.30;3.92;;;;;;;;;;5040840;28;20222;-81
2023/06/09 01:48:21;;;;;;;3.90;3.63;;;;;;;;;;5041367;28;20234;-85
2023/06/09 01:50:53;;;;;;;3.63;3.42;;;;;;;;;;5040970;28;20264;-82
2023/06/09 01:53:26;;;;;;;3.45;3.25;;;;;;;;;;5041650;28;20182;-82
2023/06/09 01:56:00;;;;;;;4.10;3.42;;;;;;;;;;5041061;28;20261;-82
2023/06/09 01:58:33;;;;;;;3.25;3.05;;;;;;;;;;5040844;28;20190;-81
2023/06/09 02:01:01;;;;;;;3.35;3.15;;;;;;;;;;5040901;28;20706;-84
2023/06/09 02:03:29;;;;;;;3.40;3.10;;;;;;;;;;5041375;28;20260;-82
2023/06/09 02:05:58;;;;;;;3.33;3.03;;;;;;;;;;5041421;28;20232;-83
2023/06/09 02:08:26;;;;;;;3.85;3.55;;;;;;;;;;5041637;28;20208;-85
2023/06/09 02:10:55;;;;;;;3.63;3.33;;;;;;;;;;5039754;28;20293;-85
2023/06/09 02:13:23;;;;;;;3.33;3.13;;;;;;;;;;5040266;28;20297;-83
2023/06/09 02:15:50;;;;;;;3.42;3.13;;;;;;;;;;5039522;28;20277;-83
2023/06/09 02:18:22;;;;;;;4.38;4.03;;;;;;;;;;5038629;28;20226;-83
2023/06/09 02:20:51;;;;;;;3.92;3.63;;;;;;;;;;5039824;28;20630;-84
2023/06/09 02:23:22;;;;;;;4.03;3.72;;;;;;;;;;5040820;28;20230;-85
2023/06/09 02:25:49;;;;;;;4.10;3.70;;;;;;;;;;5038954;28;20559;-84
2023/06/09 02:28:18;;;;;;;4.90;4.50;;;;;;;;;;5040170;28;20289;-84
2023/06/09 02:30:46;;;;;;;4.18;3.78;;;;;;;;;;5041326;28;20226;-85
2023/06/09 02:33:15;;;;;;;4.80;3.30;;;;;;;;;;5039093;28;20675;-84
2023/06/09 02:35:42;;;;;;;3.85;3.55;;;;;;;;;;5040181;28;20202;-84
2023/06/09 02:38:11;;;;;;;3.25;2.97;;;;;;;;;;5040790;28;20203;-85
2023/06/09 02:40:42;;;;;;;3.90;3.53;;;;;;;;;;5041476;28;20222;-85
2023/06/09 02:43:09;;;;;;;3.75;3.45;;;;;;;;;;5039582;28;20214;-82
2023/06/09 02:45:38;;;;;;;4.32;3.92;;;;;;;;;;5039332;28;20305;-84
2023/06/09 02:48:06;;;;;;;3.63;3.33;;;;;;;;;;5039633;28;20195;-84
2023/06/09 02:50:34;;;;;;;4.00;3.63;;;;;;;;;;5051573;28;20218;-84
2023/06/09 02:53:02;;;;;;;3.92;3.42;;;;;;;;;;5058396;28;20674;-84
2023/06/09 02:55:32;;;;;;;4.13;3.70;;;;;;;;;;5058011;28;20240;-82
2023/06/09 02:57:59;;;;;;;3.30;3.10;;;;;;;;;;5058821;28;20582;-83
2023/06/09 03:00:27;;;;;;;3.38;3.17;;;;;;;;;;5057426;28;20222;-82
2023/06/09 03:02:56;;;;;;;4.40;4.00;;;;;;;;;;5058055;28;20208;-83
2023/06/09 03:05:24;;;;;;;3.88;3.65;;;;;;;;;;5058915;28;20228;-81
2023/06/09 03:07:52;;;;;;;3.28;3.08;;;;;;;;;;5057922;28;20241;-82
2023/06/09 03:10:20;;;;;;;4.63;4.22;;;;;;;;;;5058840;28;20225;-84
2023/06/09 03:12:47;;;;;;;4.47;4.07;;;;;;;;;;5059416;28;20197;-82
2023/06/09 03:15:15;;;;;;;5.72;3.92;;;;;;;;;;5059049;28;20289;-82
2023/06/09 03:17:43;;;;;;;3.97;3.67;;;;;;;;;;5058286;28;20205;-83
2023/06/09 03:20:12;;;;;;;3.80;3.50;;;;;;;;;;5059731;28;20222;-85
2023/06/09 03:22:40;;;;;;;4.13;3.72;;;;;;;;;;5059870;28;20229;-82
2023/06/09 03:25:08;;;;;;;3.75;3.38;;;;;;;;;;5058335;28;20225;-83
2023/06/09 03:27:36;;;;;;;3.28;3.08;;;;;;;;;;5060347;28;20233;-82
2023/06/09 03:30:04;;;;;;;3.90;3.50;;;;;;;;;;5058658;28;20720;-83
2023/06/09 03:32:31;;;;;;;3.30;3.00;;;;;;;;;;5060229;28;20201;-82
2023/06/09 03:34:59;;;;;;;3.90;3.60;;;;;;;;;;5059570;28;20240;-84
2023/06/09 03:37:28;;;;;;;4.05;3.10;;;;;;;;;;5059226;28;20236;-80
2023/06/09 03:39:55;;;;;;;5.28;3.42;;;;;;;;;;5059385;28;20257;-83
2023/06/09 03:42:23;;;;;;;3.88;3.58;;;;;;;;;;5058518;28;20229;-81
2023/06/09 03:44:57;;;;;;;3.03;2.83;;;;;;;;;;5061250;28;20207;-83
2023/06/09 03:47:25;;;;;;;3.88;3.58;;;;;;;;;;5061844;28;20181;-81
2023/06/09 03:49:52;;;;;;;4.35;3.95;;;;;;;;;;5060081;28;20260;-83
2023/06/09 03:52:21;;;;;;;3.92;3.53;;;;;;;;;;5060119;28;20236;-84
2023/06/09 03:54:50;;;;;;;3.60;3.38;;;;;;;;;;5059535;28;20202;-83
2023/06/09 03:57:18;;;;;;;3.25;3.03;;;;;;;;;;5059323;28;20198;-85
2023/06/09 03:59:45;;;;;;;3.58;3.28;;;;;;;;;;5060242;28;20308;-83
2023/06/09 04:02:13;;;;;;;3.00;2.80;;;;;;;;;;5053702;28;20237;-83
2023/06/09 04:04:40;;;;;;;3.50;3.30;;;;;;;;;;5040235;28;20274;-84
2023/06/09 04:07:08;;;;;;;3.15;2.85;;;;;;;;;;5038978;28;20695;-83
2023/06/09 04:09:36;;;;;;;4.40;3.55;;;;;;;;;;5037488;28;20233;-82
2023/06/09 04:12:06;;;;;;;3.75;3.47;;;;;;;;;;5051450;28;20204;-84
2023/06/09 04:14:33;;;;;;;3.63;3.33;;;;;;;;;;5058919;28;20248;-83
2023/06/09 04:17:02;;;;;;;3.03;2.83;;;;;;;;;;5059773;28;20289;-85
2023/06/09 04:19:29;;;;;;;4.03;3.72;;;;;;;;;;5057497;28;20232;-83
2023/06/09 04:21:57;;;;;;;3.60;3.38;;;;;;;;;;5059077;28;20225;-84
2023/06/09 04:24:24;;;;;;;4.22;3.25;;;;;;;;;;5058076;28;20202;-84
2023/06/09 04:26:53;;;;;;;4.15;3.85;;;;;;;;;;5058038;28;20222;-84
2023/06/09 04:29:23;;;;;;;3.92;3.40;;;;;;;;;;5058630;28;20201;-84
2023/06/09 04:31:58;;;;;;;3.67;3.30;;;;;;;;;;5046784;28;20682;-83
2023/06/09 04:34:27;;;;;;;3.47;3.20;;;;;;;;;;5048044;28;20221;-82
2023/06/09 04:36:55;;;;;;;3.53;3.22;;;;;;;;;;5060302;28;20205;-83
2023/06/09 04:39:25;;;;;;;3.47;3.17;;;;;;;;;;5061264;28;20631;-83
2023/06/09 04:41:53;;;;;;;3.53;3.22;;;;;;;;;;5062341;28;20213;-83
2023/06/09 04:44:23;;;;;;;3.20;3.00;;;;;;;;;;5078299;28;20193;-84
2023/06/09 04:46:51;;;;;;;4.25;3.17;;;;;;;;;;5081452;28;20220;-84
2023/06/09 04:49:20;;;;;;;3.38;3.13;;;;;;;;;;5081514;28;20700;-84
2023/06/09 04:51:48;;;;;;;3.70;3.40;;;;;;;;;;5082650;28;20212;-84
2023/06/09 04:54:16;;;;;;;4.75;3.67;;;;;;;;;;5073453;28;20194;-83
2023/06/09 04:56:49;;;;;;;5.82;3.63;;;;;;;;;;5062366;28;20745;-84
2023/06/09 04:59:16;;;;;;;3.65;3.42;;;;;;;;;;5062183;28;20255;-83
2023/06/09 05:01:46;;;;;;;3.15;2.90;;;;;;;;;;5061750;28;20249;-84
2023/06/09 05:04:14;;;;;;;3.17;2.97;;;;;;;;;;5062658;28;20433;-85
2023/06/09 05:06:41;;;;;;;3.50;3.20;;;;;;;;;;5061229;28;20226;-82
2023/06/09 05:09:10;;;;;;;3.85;3.55;;;;;;;;;;5061706;28;20201;-83
2023/06/09 05:11:38;;;;;;;3.80;3.50;;;;;;;;;;5060488;28;20324;-85
2023/06/09 05:14:06;;;;;;;4.63;4.07;;;;;;;;;;5061456;28;20311;-83
2023/06/09 05:16:35;;;;;;;4.55;4.15;;;;;;;;;;5062226;28;20205;-82
2023/06/09 05:19:04;;;;;;;3.90;3.60;;;;;;;;;;5061660;28;20265;-85
2023/06/09 05:21:31;;;;;;;4.85;3.78;;;;;;;;;;5061138;28;20228;-80
2023/06/09 05:23:59;;;;;;;4.25;3.88;;;;;;;;;;5061521;28;20658;-81
2023/06/09 05:26:27;;;;;;;3.33;3.13;;;;;;;;;;5060926;28;20248;-82
2023/06/09 05:28:55;;;;;;;4.28;3.97;;;;;;;;;;5062143;28;20225;-81
2023/06/09 05:31:23;;;;;;;3.78;3.47;;;;;;;;;;5060605;28;20253;-84
2023/06/09 05:33:51;;;;;;;4.45;4.05;;;;;;;;;;5062336;28;20661;-84
2023/06/09 05:36:19;;;;;;;4.03;3.70;;;;;;;;;;5061537;28;20237;-85
2023/06/09 05:38:47;;;;;;;3.75;3.55;;;;;;;;;;5060475;28;20762;-84
2023/06/09 05:41:15;;;;;;;4.07;3.67;;;;;;;;;;5060743;28;20253;-86
2023/06/09 05:43:42;;;;;;;4.80;4.22;;;;;;;;;;5059143;28;20714;-84
2023/06/09 05:46:11;;;;;;;3.65;3.25;;;;;;;;;;5060121;28;20202;-84
2023/06/09 05:48:38;;;;;;;4.03;3.72;;;;;;;;;;5058519;28;20725;-85
2023/06/09 05:51:06;;;;;;;4.15;3.85;;;;;;;;;;5066557;28;20303;-84
2023/06/09 05:53:35;;;;;;;5.35;4.40;;;;;;;;;;5071966;28;20197;-85
2023/06/09 05:56:02;;;;;;;3.67;3.38;;;;;;;;;;5060730;28;20293;-83
2023/06/09 05:58:33;;;;;;;3.85;3.55;;;;;;;;;;5058841;28;20200;-83
2023/06/09 06:01:03;;;;;;;3.83;3.42;;;;;;;;;;5059453;28;20713;-84
2023/06/09 06:03:31;;;;;;;4.25;3.85;;;;;;;;;;5058937;28;20205;-82
2023/06/09 06:05:59;;;;;;;3.83;3.53;;;;;;;;;;5058392;28;20212;-83
2023/06/09 06:08:26;;;;;;;4.40;4.10;;;;;;;;;;5054675;28;20255;-84
2023/06/09 06:10:55;;;;;;;5.35;4.85;;;;;;;;;;5069690;28;20260;-84
2023/06/09 06:13:23;;;;;;;4.03;3.72;;;;;;;;;;5062011;28;20284;-86
2023/06/09 06:15:50;;;;;;;5.05;4.50;;;;;;;;;;5058719;28;20686;-82
2023/06/09 06:18:17;;;;;;;5.07;4.70;;;;;;;;;;5052270;28;20286;-85
2023/06/09 06:20:45;;;;;;;4.60;4.20;;;;;;;;;;5040375;28;20265;-82
2023/06/09 06:23:13;;;;;;;4.10;3.80;;;;;;;;;;5049590;28;20197;-82
2023/06/09 06:25:41;;;;;;;4.20;3.80;;;;;;;;;;5068425;28;20224;-84
2023/06/09 06:28:10;;;;;;;3.67;3.38;;;;;;;;;;5061910;28;20217;-83
2023/06/09 06:30:38;;;;;;;4.20;3.72;;;;;;;;;;5054295;28;20290;-85
2023/06/09 06:33:06;;;;;;;4.35;4.03;;;;;;;;;;5047085;28;20200;-82
2023/06/09 06:35:34;;;;;;;4.28;3.97;;;;;;;;;;5046051;28;20198;-83
2023/06/09 06:38:02;;;;;;;4.32;3.92;;;;;;;;;;5059384;28;20285;-82
2023/06/09 06:40:30;;;;;;;5.15;4.65;;;;;;;;;;5046917;28;20242;-84
2023/06/09 06:42:57;;;;;;;5.75;5.20;;;;;;;;;;5058646;28;20222;-85
2023/06/09 06:45:27;;;;;;;3.72;3.42;;;;;;;;;;5063448;28;20667;-82
2023/06/09 06:47:55;;;;;;;4.25;3.95;;;;;;;;;;5042828;28;20220;-83
2023/06/09 06:50:22;;;;;;;4.00;3.70;;;;;;;;;;5061515;28;20206;-84
2023/06/09 06:52:50;;;;;;;4.30;3.90;;;;;;;;;;5058989;28;20229;-84
2023/06/09 06:55:18;;;;;;;4.22;3.83;;;;;;;;;;5058088;28;20573;-83
2023/06/09 06:57:46;;;;;;;4.00;3.70;;;;;;;;;;5037019;28;20666;-84
2023/06/09 07:00:15;;;;;;;5.00;4.60;;;;;;;;;;5064039;28;20601;-83
2023/06/09 07:02:45;;;;;;;5.03;4.63;;;;;;;;;;5054997;28;20206;-84
2023/06/09 07:05:12;;;;;;;4.80;4.10;;;;;;;;;;5038247;28;20662;-86
2023/06/09 07:07:39;;;;;;;3.72;3.42;;;;;;;;;;5038428;28;20258;-82
2023/06/09 07:10:08;;;;;;;5.07;4.40;;;;;;;;;;5045055;28;20260;-85
2023/06/09 07:12:36;;;;;;;4.60;4.30;;;;;;;;;;5057720;28;20204;-83
2023/06/09 07:15:04;;;;;;;4.75;4.35;;;;;;;;;;5058779;28;20204;-84
2023/06/09 07:17:32;;;;;;;5.00;4.60;;;;;;;;;;5058448;28;20190;-81
2023/06/09 07:20:01;;;;;;;4.32;4.00;;;;;;;;;;5067762;28;20252;-84
2023/06/09 07:22:28;;;;;;;3.53;3.33;;;;;;;;;;5056010;28;20202;-84
2023/06/09 07:24:56;;;;;;;4.68;4.28;;;;;;;;;;5058341;28;20282;-83
2023/06/09 07:27:23;;;;;;;5.22;4.65;;;;;;;;;;5058071;28;20241;-87
2023/06/09 07:29:51;;;;;;;4.30;3.90;;;;;;;;;;5057698;28;20224;-84
2023/06/09 07:32:19;;;;;;;4.75;4.40;;;;;;;;;;5056400;28;20260;-84
2023/06/09 07:34:46;;;;;;;5.13;4.63;;;;;;;;;;5053234;28;20255;-83
2023/06/09 07:37:15;;;;;;;5.43;4.28;;;;;;;;;;5052941;28;20206;-82
2023/06/09 07:39:43;;;;;;;4.72;4.32;;;;;;;;;;5043921;28;20240;-82
2023/06/09 07:42:10;;;;;;;4.35;4.05;;;;;;;;;;5057325;28;20201;-82
2023/06/09 07:44:38;;;;;;;4.53;4.15;;;;;;;;;;5070876;28;20197;-84
2023/06/09 07:47:06;;;;;;;4.85;4.47;;;;;;;;;;5076500;28;20629;-82
2023/06/09 07:49:33;;;;;;;3.58;3.28;;;;;;;;;;5076281;28;20225;-84
2023/06/09 07:52:03;;;;;;;3.67;3.38;;;;;;;;;;5068170;28;20241;-84
2023/06/09 07:54:32;;;;;;;3.15;2.95;;;;;;;;;;5047793;28;20197;-84
2023/06/09 07:57:00;;;;;;;4.07;3.38;;;;;;;;;;5054141;28;20209;-86
2023/06/09 07:59:28;;;;;;;3.85;3.55;;;;;;;;;;5054525;28;20269;-82
2023/06/09 08:01:55;;;;;;;4.30;4.00;;;;;;;;;;5055583;28;20566;-83
2023/06/09 08:04:23;;;;;;;4.03;2.90;;;;;;;;;;5063494;22;20246;-84
2023/06/09 08:06:50;;;;;;;3.53;3.22;;;;;;;;;;5055256;28;20584;-85
2023/06/09 08:09:18;;;;;;;4.38;3.97;;;;;;;;;;5038547;28;20304;-85
2023/06/09 08:11:47;;;;;;;3.40;3.10;;;;;;;;;;5060325;28;20637;-85
2023/06/09 08:14:14;;;;;;;3.92;3.63;;;;;;;;;;5046887;28;20743;-85
2023/06/09 08:16:42;;;;;;;3.90;3.70;;;;;;;;;;5052610;28;20289;-85
2023/06/09 08:19:09;;;;;;;4.30;4.00;;;;;;;;;;5046967;28;20289;-86
2023/06/09 08:21:42;;;;;;;4.78;3.95;;;;;;;;;;5058575;28;20281;-86
2023/06/09 08:24:10;;;;;;;3.95;3.55;;;;;;;;;;5056559;28;20229;-86
2023/06/09 08:26:37;;;;;;;3.67;3.38;;;;;;;;;;5057650;28;20205;-86
2023/06/09 08:29:07;;;;;;;4.25;3.95;;;;;;;;;;5057496;28;20317;-86
2023/06/09 08:31:37;;;;;;;3.42;3.22;;;;;;;;;;5059463;28;20218;-86
2023/06/09 08:34:05;;;;;;;3.97;3.67;;;;;;;;;;5057810;28;20221;-86
2023/06/09 08:36:34;;;;;;;3.13;2.92;;;;;;;;;;5055699;28;20206;-85
2023/06/09 08:39:02;;;;;;;3.20;3.00;;;;;;;;;;5057076;28;20589;-88
2023/06/09 08:41:37;;;;;;;3.40;3.20;;;;;;;;;;5057314;28;20198;-87
2023/06/09 08:44:08;;;;;;;3.50;3.20;;;;;;;;;;5057429;28;20581;-86
2023/06/09 08:46:37;;;;;;;3.90;3.60;;;;;;;;;;5050900;28;20294;-86
2023/06/09 08:49:04;;;;;;;3.42;3.15;;;;;;;;;;5052351;28;20226;-87
2023/06/09 08:51:32;;;;;;;3.60;3.30;;;;;;;;;;5055692;28;20262;-88
2023/06/09 08:54:00;;;;;;;4.70;4.40;;;;;;;;;;5054233;28;20294;-86
2023/06/09 08:56:29;;;;;;;5.45;4.95;;;;;;;;;;5056394;28;20232;-86
2023/06/09 08:58:56;;;;;;;4.97;4.68;;;;;;;;;;5057351;28;20244;-87
2023/06/09 09:01:26;;;;;;;5.40;5.05;;;;;;;;;;5057737;28;20264;-86
2023/06/09 09:03:54;;;;;;;5.50;5.00;;;;;;;;;;5047411;28;20233;-86
2023/06/09 09:06:21;;;;;;;4.38;4.03;;;;;;;;;;5055355;28;20281;-86
2023/06/09 09:08:49;;;;;;;4.53;4.13;;;;;;;;;;5053573;28;20253;-86
2023/06/09 09:11:16;;;;;;;6.03;4.03;;;;;;;;;;5055085;28;20233;-87
2023/06/09 09:13:44;;;;;;;5.13;4.72;;;;;;;;;;5056893;28;20226;-86
2023/06/09 09:16:15;;;;;;;4.50;4.18;;;;;;;;;;5043049;28;20289;-86
2023/06/09 09:18:47;;;;;;;4.28;3.97;;;;;;;;;;5055387;28;20206;-86
2023/06/09 09:21:22;;;;;;;4.20;3.90;;;;;;;;;;5050610;28;20207;-86
2023/06/09 09:23:57;;;;;;;3.72;3.53;;;;;;;;;;5050611;28;20620;-86
2023/06/09 09:26:28;;;;;;;4.45;4.13;;;;;;;;;;5055930;28;20223;-87
2023/06/09 09:28:57;;;;;;;5.20;4.22;;;;;;;;;;5057271;28;20213;-86
2023/06/09 09:31:38;;;;;;;4.68;4.38;;;;;;;;;;5043150;28;20285;-85
2023/06/09 09:34:12;;;;;;;4.60;4.22;;;;;;;;;;5056329;28;20285;-86
2023/06/09 09:36:43;;;;;;;4.50;4.18;;;;;;;;;;5053309;28;20189;-86
2023/06/09 09:39:10;;;;;;;4.63;4.22;;;;;;;;;;5050580;28;20283;-86
2023/06/09 09:41:38;;;;;;;5.40;4.90;;;;;;;;;;5056091;28;20248;-86
2023/06/09 09:44:06;;;;;;;4.22;3.85;;;;;;;;;;5054534;28;20301;-86
2023/06/09 09:46:37;;;;;;;4.57;4.22;;;;;;;;;;5055783;28;20289;-87
2023/06/09 09:49:07;;;;;;;5.68;4.90;;;;;;;;;;5055626;28;20212;-86
2023/06/09 09:51:37;;;;;;;4.35;4.05;;;;;;;;;;5056558;28;20194;-86
2023/06/09 09:54:05;;;;;;;4.82;4.43;;;;;;;;;;5057492;28;20225;-87
2023/06/09 09:56:32;;;;;;;4.55;4.18;;;;;;;;;;5057412;28;20284;-86
2023/06/09 09:59:02;;;;;;;5.30;4.85;;;;;;;;;;5049356;28;20655;-86
2023/06/09 10:01:29;;;;;;;4.40;4.10;;;;;;;;;;5035759;28;20237;-86
2023/06/09 10:03:57;;;;;;;4.47;4.18;;;;;;;;;;5052625;28;20312;-86
2023/06/09 10:06:28;;;;;;;4.82;4.25;;;;;;;;;;5056179;28;20292;-87
2023/06/09 10:08:58;;;;;;;4.57;4.18;;;;;;;;;;5056344;28;20209;-87
2023/06/09 10:11:30;;;;;;;4.60;4.30;;;;;;;;;;5056031;28;20198;-86
2023/06/09 10:13:59;;;;;;;4.40;4.00;;;;;;;;;;5056932;28;20332;-86
2023/06/09 10:16:27;;;;;;;5.45;4.95;;;;;;;;;;5055976;28;20206;-87
2023/06/09 10:18:55;;;;;;;4.18;3.88;;;;;;;;;;5056727;28;20658;-85
2023/06/09 10:21:23;;;;;;;4.75;4.35;;;;;;;;;;5056188;28;20624;-86
2023/06/09 10:23:53;;;;;;;4.85;4.45;;;;;;;;;;5050140;28;20286;-85
2023/06/09 10:26:21;;;;;;;5.18;4.78;;;;;;;;;;5055357;28;20202;-87
2023/06/09 10:28:49;;;;;;;5.30;4.82;;;;;;;;;;5054632;28;20204;-86
2023/06/09 10:31:18;;;;;;;5.97;5.38;;;;;;;;;;5055723;28;20255;-88
2023/06/09 10:33:47;;;;;;;5.55;5.07;;;;;;;;;;5054345;28;20300;-86
2023/06/09 10:36:14;;;;;;;3.75;3.55;;;;;;;;;;5054846;28;20205;-86
2023/06/09 10:38:44;;;;;;;5.05;4.57;;;;;;;;;;5054759;28;20297;-87
2023/06/09 10:41:16;;;;;;;5.45;4.70;;;;;;;;;;5050261;28;20301;-86
2023/06/09 10:44:18;;;;;;;5.22;4.82;;;;;;;;;;5033475;28;20226;-86
2023/06/09 10:46:47;;;;;;;4.60;4.20;;;;;;;;;;5034480;28;20232;-87
2023/06/09 10:49:42;;;;;;;4.38;3.97;;;;;;;;;;5033920;28;20201;-85
2023/06/09 10:52:25;;;;;;;4.95;4.55;;;;;;;;;;5043429;28;20595;-85
2023/06/09 10:55:11;;;;;;;5.28;4.88;;;;;;;;;;5053221;28;20208;-85
2023/06/09 10:57:41;;;;;;;4.43;3.92;;;;;;;;;;5054209;28;20550;-86
2023/06/09 11:00:14;;;;;;;4.38;3.95;;;;;;;;;;5054415;28;20204;-86
2023/06/09 11:02:43;;;;;;;4.15;3.85;;;;;;;;;;5053719;28;20317;-86
2023/06/09 11:05:11;;;;;;;4.40;3.70;;;;;;;;;;5053704;28;20749;-86
2023/06/09 11:07:45;;;;;;;4.53;4.20;;;;;;;;;;5053993;28;20197;-85
2023/06/09 11:10:27;;;;;;;4.88;4.57;;;;;;;;;;5052941;28;20224;-86
2023/06/09 11:12:56;;;;;;;3.65;3.40;;;;;;;;;;5054404;28;20225;-86
2023/06/09 11:15:45;;;;;;;4.10;3.80;;;;;;;;;;5053426;28;20201;-86
2023/06/09 11:18:18;;;;;;;4.32;4.03;;;;;;;;;;5052857;28;20201;-85
2023/06/09 11:20:45;;;;;;;4.57;4.10;;;;;;;;;;5053663;28;20285;-87
2023/06/09 11:23:13;;;;;;;4.28;3.97;;;;;;;;;;5044064;28;20660;-86
2023/06/09 11:25:41;;;;;;;5.65;4.78;;;;;;;;;;5033867;28;20198;-86
2023/06/09 11:28:20;;;;;;;4.07;3.78;;;;;;;;;;5036649;28;20190;-86
2023/06/09 11:31:06;;;;;;;4.07;3.78;;;;;;;;;;5053433;28;20224;-85
2023/06/09 11:33:50;;;;;;;4.18;3.88;;;;;;;;;;5053384;28;20228;-85
2023/06/09 11:36:20;;;;;;;3.80;3.60;;;;;;;;;;5053138;28;20595;-87
2023/06/09 11:38:48;;;;;;;4.20;3.90;;;;;;;;;;5053300;28;20612;-86
2023/06/09 11:41:21;;;;;;;4.32;3.90;;;;;;;;;;5052933;28;20221;-85
2023/06/09 11:43:57;;;;;;;4.00;3.70;;;;;;;;;;5053274;28;20221;-87
2023/06/09 11:46:25;;;;;;;3.78;3.47;;;;;;;;;;5057133;28;20208;-85
2023/06/09 11:49:09;;;;;;;3.67;3.47;;;;;;;;;;5057758;28;20653;-87
2023/06/09 11:52:02;;;;;;;4.03;3.80;;;;;;;;;;5057576;28;20178;-86
2023/06/09 11:54:47;;;;;;;4.20;3.90;;;;;;;;;;5041842;28;20229;-86
2023/06/09 11:57:16;;;;;;;4.75;4.45;;;;;;;;;;5037182;28;20288;-86
2023/06/09 11:59:45;;;;;;;4.65;3.90;;;;;;;;;;5037623;28;20202;-87
2023/06/09 12:02:13;;;;;;;4.18;3.88;;;;;;;;;;5037498;28;20316;-87
2023/06/09 12:04:45;;;;;;;4.20;3.80;;;;;;;;;;5051759;28;20229;-87
2023/06/09 12:07:14;;;;;;;4.28;3.97;;;;;;;;;;5057510;28;20254;-87
2023/06/09 12:09:42;;;;;;;3.70;3.50;;;;;;;;;;5057524;28;20292;-86
2023/06/09 12:12:11;;;;;;;3.55;3.35;;;;;;;;;;5057504;28;20208;-85
2023/06/09 12:14:39;;;;;;;4.05;3.75;;;;;;;;;;5056642;28;20225;-86
2023/06/09 12:17:07;;;;;;;4.10;3.80;;;;;;;;;;5056781;28;20194;-85
2023/06/09 12:19:34;;;;;;;4.50;4.10;;;;;;;;;;5054603;28;20201;-86
2023/06/09 12:22:04;;;;;;;4.45;4.05;;;;;;;;;;5056382;28;20257;-86
2023/06/09 12:24:33;;;;;;;4.60;4.30;;;;;;;;;;5056699;28;20221;-88
2023/06/09 12:27:12;;;;;;;4.28;3.95;;;;;;;;;;5056384;28;20201;-87
2023/06/09 12:29:40;;;;;;;4.40;4.10;;;;;;;;;;5056479;28;20193;-87
2023/06/09 12:32:10;;;;;;;3.63;3.38;;;;;;;;;;5056429;28;20317;-86
2023/06/09 12:34:38;;;;;;;4.93;3.90;;;;;;;;;;5056371;28;20226;-87
2023/06/09 12:37:08;;;;;;;4.93;4.32;;;;;;;;;;5057157;28;20678;-87
2023/06/09 12:39:35;;;;;;;3.42;3.22;;;;;;;;;;5056603;28;20197;-86
2023/06/09 12:42:13;;;;;;;9.15;3.58;;;;;;;;;;5056248;28;20312;-86
2023/06/09 12:44:41;;;;;;;4.32;3.67;;;;;;;;;;5056322;28;20231;-86
2023/06/09 12:47:15;;;;;;;4.57;3.22;;;;;;;;;;5056152;28;20292;-86
2023/06/09 12:49:46;;;;;;;4.45;4.00;;;;;;;;;;5056331;28;20204;-86
2023/06/09 12:52:15;;;;;;;4.07;3.78;;;;;;;;;;5056501;28;20269;-86
2023/06/09 12:54:43;;;;;;;3.50;3.20;;;;;;;;;;5056280;28;20752;-86
2023/06/09 12:57:11;;;;;;;4.18;3.88;;;;;;;;;;5055172;28;20650;-86
2023/06/09 12:59:39;;;;;;;4.32;4.03;;;;;;;;;;5055727;28;20201;-87
2023/06/09 13:02:07;;;;;;;4.03;3.72;;;;;;;;;;5056161;28;20335;-87
2023/06/09 13:04:34;;;;;;;4.10;3.80;;;;;;;;;;5056013;28;20320;-86
2023/06/09 13:07:02;;;;;;;3.25;2.95;;;;;;;;;;5056163;28;20281;-86
2023/06/09 13:09:31;;;;;;;4.03;3.65;;;;;;;;;;5055149;28;20233;-86
2023/06/09 13:11:58;;;;;;;3.33;3.13;;;;;;;;;;5056158;28;20284;-86
2023/06/09 13:14:26;;;;;;;4.22;3.30;;;;;;;;;;5055675;28;20225;-87
2023/06/09 13:16:53;;;;;;;3.80;3.50;;;;;;;;;;5055838;28;20233;-86
2023/06/09 13:19:21;;;;;;;3.15;2.95;;;;;;;;;;5055662;28;20280;-87
2023/06/09 13:21:48;;;;;;;3.42;3.13;;;;;;;;;;5055600;28;20260;-86
2023/06/09 13:24:16;;;;;;;3.80;3.50;;;;;;;;;;5048492;28;20226;-86
2023/06/09 13:26:46;;;;;;;3.50;3.30;;;;;;;;;;5045859;28;20233;-86
2023/06/09 13:29:14;;;;;;;4.00;2.92;;;;;;;;;;5055315;28;20186;-87
2023/06/09 13:31:41;;;;;;;3.63;3.35;;;;;;;;;;5054993;28;20749;-86
2023/06/09 13:34:09;;;;;;;3.78;3.47;;;;;;;;;;5055000;28;20782;-87
2023/06/09 13:36:37;;;;;;;4.32;4.03;;;;;;;;;;5055402;28;20704;-86
2023/06/09 13:39:04;;;;;;;3.83;3.53;;;;;;;;;;5055420;28;20225;-86
2023/06/09 13:41:32;;;;;;;3.38;3.17;;;;;;;;;;5055139;28;20308;-86
2023/06/09 13:44:02;;;;;;;3.67;3.38;;;;;;;;;;5054797;28;20222;-86
2023/06/09 13:46:30;;;;;;;3.63;3.33;;;;;;;;;;5055151;28;20186;-86
2023/06/09 13:48:57;;;;;;;3.08;2.88;;;;;;;;;;5035264;28;20206;-86
2023/06/09 13:51:25;;;;;;;3.67;3.38;;;;;;;;;;5035528;28;20659;-87
2023/06/09 13:53:52;;;;;;;3.45;3.25;;;;;;;;;;5035284;28;20227;-86
2023/06/09 13:56:20;;;;;;;3.90;3.60;;;;;;;;;;5035115;28;20285;-85
2023/06/09 13:58:48;;;;;;;3.08;2.88;;;;;;;;;;5034963;28;20209;-86
2023/06/09 14:01:17;;;;;;;4.28;3.72;;;;;;;;;;5035003;28;20289;-87
2023/06/09 14:03:44;;;;;;;2.75;2.55;;;;;;;;;;5046287;28;20324;-86
2023/06/09 14:06:12;;;;;;;3.20;3.00;;;;;;;;;;5054766;28;20198;-86
2023/06/09 14:08:40;;;;;;;3.60;3.38;;;;;;;;;;5054081;28;20198;-86
2023/06/09 14:11:08;;;;;;;4.20;3.88;;;;;;;;;;5054782;28;20210;-87
2023/06/09 14:13:35;;;;;;;3.60;3.30;;;;;;;;;;5055170;28;20213;-86
2023/06/09 14:16:03;;;;;;;3.13;2.92;;;;;;;;;;5054848;28;20284;-87
2023/06/09 14:18:32;;;;;;;4.45;4.05;;;;;;;;;;5054716;28;20208;-86
2023/06/09 14:20:59;;;;;;;3.28;3.08;;;;;;;;;;5054074;28;20292;-86
2023/06/09 14:23:27;;;;;;;4.10;3.80;;;;;;;;;;5054118;28;20229;-86
2023/06/09 14:25:54;;;;;;;3.47;3.28;;;;;;;;;;5054732;28;20642;-86
2023/06/09 14:28:22;;;;;;;3.50;3.30;;;;;;;;;;5054542;28;20549;-86
2023/06/09 14:30:49;;;;;;;3.47;3.17;;;;;;;;;;5041243;28;20233;-86
2023/06/09 14:33:17;;;;;;;3.92;3.63;;;;;;;;;;5049789;28;20224;-86
2023/06/09 14:35:46;;;;;;;4.03;3.72;;;;;;;;;;5054330;28;20244;-86
2023/06/09 14:38:13;;;;;;;4.20;3.65;;;;;;;;;;5054221;28;20255;-85
2023/06/09 14:40:41;;;;;;;3.40;3.20;;;;;;;;;;5042632;28;20289;-86
2023/06/09 14:43:09;;;;;;;3.05;2.85;;;;;;;;;;5033807;28;20254;-86
2023/06/09 14:45:37;;;;;;;3.92;3.58;;;;;;;;;;5034717;28;20270;-86
2023/06/09 14:48:07;;;;;;;3.10;2.80;;;;;;;;;;5033976;28;20293;-86
2023/06/09 14:50:37;;;;;;;3.25;2.97;;;;;;;;;;5033820;28;20206;-88
2023/06/09 14:53:07;;;;;;;4.05;3.42;;;;;;;;;;5033930;28;20233;-87
2023/06/09 14:55:40;;;;;;;3.10;2.90;;;;;;;;;;5052543;28;20288;-86